sensor_id;sensor_type;location;lat;lon;timestamp;P1;durP1;ratioP1;P2;durP2;ratioP2
52816;SDS011;38687;43.330;21.924;2023-04-03T00:01:11;20.33;;;11.55;;
52816;SDS011;38687;43.330;21.924;2023-04-03T00:03:36;17.90;;;11.98;;
52816;SDS011;38687;43.330;21.924;2023-04-03T00:06:02;19.80;;;11.60;;
52816;SDS011;38687;43.330;21.924;2023-04-03T00:08:28;19.10;;;11.63;;
52816;SDS011;38687;43.330;21.924;2023-04-03T00:10:56;22.30;;;11.77;;
52816;SDS011;38687;43.330;21.924;2023-04-03T00:13:22;20.27;;;12.20;;
52816;SDS011;38687;43.330;21.924;2023-04-03T00:15:48;22.33;;;13.60;;
52816;SDS011;38687;43.330;21.924;2023-04-03T00:18:13;18.13;;;11.35;;
52816;SDS011;38687;43.330;21.924;2023-04-03T00:20:39;15.02;;;9.48;;
52816;SDS011;38687;43.330;21.924;2023-04-03T00:23:04;14.10;;;8.30;;
52816;SDS011;38687;43.330;21.924;2023-04-03T00:25:30;14.73;;;9.18;;
52816;SDS011;38687;43.330;21.924;2023-04-03T00:27:55;12.73;;;7.95;;
52816;SDS011;38687;43.330;21.924;2023-04-03T00:30:21;16.83;;;9.38;;
52816;SDS011;38687;43.330;21.924;2023-04-03T00:32:51;16.50;;;9.80;;
52816;SDS011;38687;43.330;21.924;2023-04-03T00:35:17;20.80;;;12.15;;
52816;SDS011;38687;43.330;21.924;2023-04-03T00:37:43;23.83;;;13.23;;
52816;SDS011;38687;43.330;21.924;2023-04-03T00:40:10;26.80;;;14.70;;
52816;SDS011;38687;43.330;21.924;2023-04-03T00:42:37;29.55;;;15.00;;
52816;SDS011;38687;43.330;21.924;2023-04-03T00:47:27;30.15;;;16.48;;
52816;SDS011;38687;43.330;21.924;2023-04-03T00:49:53;38.38;;;19.13;;
52816;SDS011;38687;43.330;21.924;2023-04-03T00:52:19;39.67;;;20.92;;
52816;SDS011;38687;43.330;21.924;2023-04-03T00:54:47;32.30;;;17.75;;
52816;SDS011;38687;43.330;21.924;2023-04-03T00:57:14;31.38;;;16.77;;
52816;SDS011;38687;43.330;21.924;2023-04-03T00:59:41;31.02;;;16.45;;
52816;SDS011;38687;43.330;21.924;2023-04-03T01:02:09;30.58;;;17.30;;
52816;SDS011;38687;43.330;21.924;2023-04-03T01:04:39;24.88;;;13.80;;
52816;SDS011;38687;43.330;21.924;2023-04-03T01:07:07;23.33;;;12.07;;
52816;SDS011;38687;43.330;21.924;2023-04-03T01:09:33;17.23;;;8.50;;
52816;SDS011;38687;43.330;21.924;2023-04-03T01:12:12;23.25;;;10.25;;
52816;SDS011;38687;43.330;21.924;2023-04-03T01:14:48;19.15;;;10.43;;
52816;SDS011;38687;43.330;21.924;2023-04-03T01:25:35;12.85;;;7.88;;
52816;SDS011;38687;43.330;21.924;2023-04-03T01:28:03;12.75;;;7.45;;
52816;SDS011;38687;43.330;21.924;2023-04-03T01:30:34;18.20;;;9.63;;
52816;SDS011;38687;43.330;21.924;2023-04-03T01:33:21;21.05;;;11.20;;
52816;SDS011;38687;43.330;21.924;2023-04-03T01:35:46;22.25;;;10.98;;
52816;SDS011;38687;43.330;21.924;2023-04-03T01:38:12;25.65;;;12.05;;
52816;SDS011;38687;43.330;21.924;2023-04-03T01:40:37;29.23;;;14.65;;
52816;SDS011;38687;43.330;21.924;2023-04-03T01:43:02;40.65;;;19.70;;
52816;SDS011;38687;43.330;21.924;2023-04-03T01:45:28;39.28;;;18.05;;
52816;SDS011;38687;43.330;21.924;2023-04-03T01:47:53;29.38;;;15.10;;
52816;SDS011;38687;43.330;21.924;2023-04-03T01:50:19;25.77;;;13.20;;
52816;SDS011;38687;43.330;21.924;2023-04-03T01:52:44;22.80;;;12.05;;
52816;SDS011;38687;43.330;21.924;2023-04-03T01:55:09;24.73;;;14.10;;
52816;SDS011;38687;43.330;21.924;2023-04-03T01:57:35;28.10;;;13.95;;
52816;SDS011;38687;43.330;21.924;2023-04-03T02:00:00;25.17;;;13.65;;
52816;SDS011;38687;43.330;21.924;2023-04-03T02:02:27;23.70;;;13.93;;
52816;SDS011;38687;43.330;21.924;2023-04-03T02:04:52;24.73;;;12.70;;
52816;SDS011;38687;43.330;21.924;2023-04-03T02:07:18;22.98;;;13.38;;
52816;SDS011;38687;43.330;21.924;2023-04-03T02:09:43;22.23;;;11.30;;
52816;SDS011;38687;43.330;21.924;2023-04-03T02:12:08;21.48;;;11.45;;
52816;SDS011;38687;43.330;21.924;2023-04-03T02:14:34;20.75;;;10.93;;
52816;SDS011;38687;43.330;21.924;2023-04-03T02:17:00;15.55;;;9.18;;
52816;SDS011;38687;43.330;21.924;2023-04-03T02:19:29;19.30;;;9.50;;
52816;SDS011;38687;43.330;21.924;2023-04-03T02:21:55;16.92;;;9.50;;
52816;SDS011;38687;43.330;21.924;2023-04-03T02:24:20;18.42;;;9.50;;
52816;SDS011;38687;43.330;21.924;2023-04-03T02:26:46;14.40;;;7.20;;
52816;SDS011;38687;43.330;21.924;2023-04-03T02:29:11;14.23;;;6.70;;
52816;SDS011;38687;43.330;21.924;2023-04-03T02:31:37;12.18;;;6.88;;
52816;SDS011;38687;43.330;21.924;2023-04-03T02:34:04;11.63;;;6.95;;
52816;SDS011;38687;43.330;21.924;2023-04-03T02:36:29;10.15;;;6.80;;
52816;SDS011;38687;43.330;21.924;2023-04-03T02:38:54;15.55;;;6.85;;
52816;SDS011;38687;43.330;21.924;2023-04-03T02:41:20;18.48;;;11.02;;
52816;SDS011;38687;43.330;21.924;2023-04-03T02:43:46;30.08;;;13.52;;
52816;SDS011;38687;43.330;21.924;2023-04-03T02:46:11;27.80;;;14.15;;
52816;SDS011;38687;43.330;21.924;2023-04-03T02:48:39;36.67;;;14.38;;
52816;SDS011;38687;43.330;21.924;2023-04-03T02:51:04;30.45;;;13.40;;
52816;SDS011;38687;43.330;21.924;2023-04-03T02:53:29;25.00;;;11.15;;
52816;SDS011;38687;43.330;21.924;2023-04-03T02:55:55;19.05;;;9.60;;
52816;SDS011;38687;43.330;21.924;2023-04-03T02:58:20;14.52;;;7.35;;
52816;SDS011;38687;43.330;21.924;2023-04-03T03:00:46;8.45;;;5.60;;
52816;SDS011;38687;43.330;21.924;2023-04-03T03:03:11;9.15;;;4.93;;
52816;SDS011;38687;43.330;21.924;2023-04-03T03:05:38;9.00;;;5.47;;
52816;SDS011;38687;43.330;21.924;2023-04-03T03:08:03;7.53;;;5.00;;
52816;SDS011;38687;43.330;21.924;2023-04-03T03:10:29;7.53;;;4.75;;
52816;SDS011;38687;43.330;21.924;2023-04-03T03:12:54;9.35;;;5.28;;
52816;SDS011;38687;43.330;21.924;2023-04-03T03:15:19;8.20;;;5.05;;
52816;SDS011;38687;43.330;21.924;2023-04-03T03:17:45;10.88;;;5.28;;
52816;SDS011;38687;43.330;21.924;2023-04-03T03:20:10;11.15;;;6.40;;
52816;SDS011;38687;43.330;21.924;2023-04-03T03:22:37;16.63;;;9.05;;
52816;SDS011;38687;43.330;21.924;2023-04-03T03:25:05;15.27;;;8.35;;
52816;SDS011;38687;43.330;21.924;2023-04-03T03:27:31;9.13;;;6.38;;
52816;SDS011;38687;43.330;21.924;2023-04-03T03:29:57;11.98;;;6.25;;
52816;SDS011;38687;43.330;21.924;2023-04-03T03:32:22;10.15;;;6.43;;
52816;SDS011;38687;43.330;21.924;2023-04-03T03:34:47;12.32;;;7.80;;
52816;SDS011;38687;43.330;21.924;2023-04-03T03:37:13;11.02;;;7.35;;
52816;SDS011;38687;43.330;21.924;2023-04-03T03:39:41;14.05;;;7.43;;
52816;SDS011;38687;43.330;21.924;2023-04-03T03:42:07;13.43;;;8.18;;
52816;SDS011;38687;43.330;21.924;2023-04-03T03:44:32;17.05;;;8.00;;
52816;SDS011;38687;43.330;21.924;2023-04-03T03:46:57;13.75;;;7.28;;
52816;SDS011;38687;43.330;21.924;2023-04-03T03:49:23;15.68;;;7.72;;
52816;SDS011;38687;43.330;21.924;2023-04-03T03:51:48;10.70;;;6.80;;
52816;SDS011;38687;43.330;21.924;2023-04-03T03:54:16;12.80;;;7.15;;
52816;SDS011;38687;43.330;21.924;2023-04-03T03:56:45;17.92;;;9.00;;
52816;SDS011;38687;43.330;21.924;2023-04-03T03:59:13;21.05;;;10.07;;
52816;SDS011;38687;43.330;21.924;2023-04-03T04:01:39;15.55;;;8.60;;
52816;SDS011;38687;43.330;21.924;2023-04-03T04:04:04;14.70;;;8.45;;
52816;SDS011;38687;43.330;21.924;2023-04-03T04:06:30;17.70;;;8.95;;
52816;SDS011;38687;43.330;21.924;2023-04-03T04:08:55;16.75;;;8.63;;
52816;SDS011;38687;43.330;21.924;2023-04-03T04:11:24;15.65;;;9.70;;
52816;SDS011;38687;43.330;21.924;2023-04-03T04:13:53;20.35;;;12.70;;
52816;SDS011;38687;43.330;21.924;2023-04-03T04:16:18;16.02;;;10.13;;
52816;SDS011;38687;43.330;21.924;2023-04-03T04:18:43;17.80;;;10.45;;
52816;SDS011;38687;43.330;21.924;2023-04-03T04:21:09;20.10;;;10.70;;
52816;SDS011;38687;43.330;21.924;2023-04-03T04:23:34;21.25;;;10.60;;
52816;SDS011;38687;43.330;21.924;2023-04-03T04:26:00;20.88;;;10.95;;
52816;SDS011;38687;43.330;21.924;2023-04-03T04:28:28;22.45;;;11.50;;
52816;SDS011;38687;43.330;21.924;2023-04-03T04:30:57;24.65;;;11.02;;
52816;SDS011;38687;43.330;21.924;2023-04-03T04:33:22;18.17;;;10.13;;
52816;SDS011;38687;43.330;21.924;2023-04-03T04:35:47;19.80;;;11.05;;
52816;SDS011;38687;43.330;21.924;2023-04-03T04:38:13;17.15;;;9.25;;
52816;SDS011;38687;43.330;21.924;2023-04-03T04:40:38;17.75;;;9.07;;
52816;SDS011;38687;43.330;21.924;2023-04-03T04:43:04;15.20;;;10.82;;
52816;SDS011;38687;43.330;21.924;2023-04-03T04:45:29;14.68;;;8.75;;
52816;SDS011;38687;43.330;21.924;2023-04-03T04:47:58;25.95;;;12.95;;
52816;SDS011;38687;43.330;21.924;2023-04-03T04:50:24;27.60;;;15.77;;
52816;SDS011;38687;43.330;21.924;2023-04-03T04:52:49;27.48;;;14.50;;
52816;SDS011;38687;43.330;21.924;2023-04-03T04:55:19;16.13;;;9.88;;
52816;SDS011;38687;43.330;21.924;2023-04-03T04:57:44;14.18;;;8.18;;
52816;SDS011;38687;43.330;21.924;2023-04-03T05:00:13;10.70;;;6.53;;
52816;SDS011;38687;43.330;21.924;2023-04-03T05:02:39;11.68;;;6.32;;
52816;SDS011;38687;43.330;21.924;2023-04-03T05:05:04;14.18;;;7.10;;
52816;SDS011;38687;43.330;21.924;2023-04-03T05:07:29;12.75;;;6.85;;
52816;SDS011;38687;43.330;21.924;2023-04-03T05:09:58;11.90;;;6.00;;
52816;SDS011;38687;43.330;21.924;2023-04-03T05:12:23;12.95;;;7.82;;
52816;SDS011;38687;43.330;21.924;2023-04-03T05:14:52;14.82;;;9.93;;
52816;SDS011;38687;43.330;21.924;2023-04-03T05:17:17;15.32;;;10.43;;
52816;SDS011;38687;43.330;21.924;2023-04-03T05:19:42;14.43;;;9.75;;
52816;SDS011;38687;43.330;21.924;2023-04-03T05:22:08;15.52;;;9.70;;
52816;SDS011;38687;43.330;21.924;2023-04-03T05:24:36;16.35;;;10.63;;
52816;SDS011;38687;43.330;21.924;2023-04-03T05:27:02;16.33;;;10.80;;
52816;SDS011;38687;43.330;21.924;2023-04-03T05:29:27;9.27;;;7.10;;
52816;SDS011;38687;43.330;21.924;2023-04-03T05:31:52;7.20;;;4.88;;
52816;SDS011;38687;43.330;21.924;2023-04-03T05:34:21;5.65;;;4.50;;
52816;SDS011;38687;43.330;21.924;2023-04-03T05:36:49;5.20;;;4.30;;
52816;SDS011;38687;43.330;21.924;2023-04-03T05:39:15;6.43;;;5.47;;
52816;SDS011;38687;43.330;21.924;2023-04-03T05:41:43;10.30;;;8.00;;
52816;SDS011;38687;43.330;21.924;2023-04-03T05:44:08;9.60;;;5.95;;
52816;SDS011;38687;43.330;21.924;2023-04-03T05:46:34;14.75;;;9.13;;
52816;SDS011;38687;43.330;21.924;2023-04-03T05:49:00;9.60;;;7.78;;
52816;SDS011;38687;43.330;21.924;2023-04-03T05:51:28;10.52;;;6.85;;
52816;SDS011;38687;43.330;21.924;2023-04-03T05:56:51;14.18;;;6.50;;
52816;SDS011;38687;43.330;21.924;2023-04-03T05:59:16;12.32;;;7.65;;
52816;SDS011;38687;43.330;21.924;2023-04-03T06:01:42;18.88;;;10.93;;
52816;SDS011;38687;43.330;21.924;2023-04-03T06:04:07;18.50;;;12.32;;
52816;SDS011;38687;43.330;21.924;2023-04-03T06:06:43;16.90;;;10.57;;
52816;SDS011;38687;43.330;21.924;2023-04-03T06:09:10;15.68;;;9.43;;
52816;SDS011;38687;43.330;21.924;2023-04-03T06:11:35;16.65;;;9.77;;
52816;SDS011;38687;43.330;21.924;2023-04-03T06:14:01;14.73;;;10.65;;
52816;SDS011;38687;43.330;21.924;2023-04-03T06:16:26;16.98;;;11.20;;
52816;SDS011;38687;43.330;21.924;2023-04-03T06:18:52;21.67;;;13.05;;
52816;SDS011;38687;43.330;21.924;2023-04-03T06:21:17;22.23;;;14.00;;
52816;SDS011;38687;43.330;21.924;2023-04-03T06:23:42;30.00;;;15.45;;
52816;SDS011;38687;43.330;21.924;2023-04-03T06:26:08;23.58;;;12.98;;
52816;SDS011;38687;43.330;21.924;2023-04-03T06:28:33;20.17;;;13.48;;
52816;SDS011;38687;43.330;21.924;2023-04-03T06:30:58;23.42;;;13.02;;
52816;SDS011;38687;43.330;21.924;2023-04-03T06:33:24;22.67;;;14.02;;
52816;SDS011;38687;43.330;21.924;2023-04-03T06:35:54;22.77;;;13.20;;
52816;SDS011;38687;43.330;21.924;2023-04-03T06:38:21;20.05;;;14.60;;
52816;SDS011;38687;43.330;21.924;2023-04-03T06:40:47;21.15;;;15.05;;
52816;SDS011;38687;43.330;21.924;2023-04-03T06:43:12;18.98;;;13.55;;
52816;SDS011;38687;43.330;21.924;2023-04-03T06:45:37;20.92;;;13.13;;
52816;SDS011;38687;43.330;21.924;2023-04-03T06:48:03;18.25;;;13.15;;
52816;SDS011;38687;43.330;21.924;2023-04-03T06:50:28;20.20;;;13.07;;
52816;SDS011;38687;43.330;21.924;2023-04-03T06:52:54;23.42;;;16.20;;
52816;SDS011;38687;43.330;21.924;2023-04-03T06:55:19;22.65;;;13.38;;
52816;SDS011;38687;43.330;21.924;2023-04-03T06:57:45;24.17;;;14.38;;
52816;SDS011;38687;43.330;21.924;2023-04-03T07:00:11;20.40;;;12.85;;
52816;SDS011;38687;43.330;21.924;2023-04-03T07:02:37;17.80;;;12.57;;
52816;SDS011;38687;43.330;21.924;2023-04-03T07:05:02;22.02;;;13.77;;
52816;SDS011;38687;43.330;21.924;2023-04-03T07:07:28;21.73;;;13.35;;
52816;SDS011;38687;43.330;21.924;2023-04-03T07:09:53;16.98;;;12.27;;
52816;SDS011;38687;43.330;21.924;2023-04-03T07:12:19;14.60;;;9.82;;
52816;SDS011;38687;43.330;21.924;2023-04-03T07:14:44;14.88;;;10.02;;
52816;SDS011;38687;43.330;21.924;2023-04-03T07:17:09;11.50;;;9.25;;
52816;SDS011;38687;43.330;21.924;2023-04-03T07:19:35;13.38;;;9.23;;
52816;SDS011;38687;43.330;21.924;2023-04-03T07:22:01;13.68;;;8.68;;
52816;SDS011;38687;43.330;21.924;2023-04-03T07:24:27;13.73;;;9.93;;
52816;SDS011;38687;43.330;21.924;2023-04-03T07:26:52;13.95;;;10.00;;
52816;SDS011;38687;43.330;21.924;2023-04-03T07:29:18;12.63;;;9.82;;
52816;SDS011;38687;43.330;21.924;2023-04-03T07:31:45;12.30;;;9.77;;
52816;SDS011;38687;43.330;21.924;2023-04-03T07:34:11;12.60;;;10.30;;
52816;SDS011;38687;43.330;21.924;2023-04-03T07:36:36;15.25;;;11.43;;
52816;SDS011;38687;43.330;21.924;2023-04-03T07:39:02;22.88;;;11.98;;
52816;SDS011;38687;43.330;21.924;2023-04-03T07:41:28;14.88;;;11.05;;
52816;SDS011;38687;43.330;21.924;2023-04-03T07:43:53;14.25;;;11.00;;
52816;SDS011;38687;43.330;21.924;2023-04-03T07:46:19;16.73;;;10.95;;
52816;SDS011;38687;43.330;21.924;2023-04-03T07:48:45;23.10;;;12.80;;
52816;SDS011;38687;43.330;21.924;2023-04-03T07:51:11;19.60;;;13.20;;
52816;SDS011;38687;43.330;21.924;2023-04-03T07:53:36;27.20;;;15.18;;
52816;SDS011;38687;43.330;21.924;2023-04-03T07:56:02;23.20;;;14.98;;
52816;SDS011;38687;43.330;21.924;2023-04-03T07:58:28;24.23;;;14.57;;
52816;SDS011;38687;43.330;21.924;2023-04-03T08:00:54;23.23;;;14.40;;
52816;SDS011;38687;43.330;21.924;2023-04-03T08:03:19;22.20;;;15.75;;
52816;SDS011;38687;43.330;21.924;2023-04-03T08:05:45;23.38;;;15.00;;
52816;SDS011;38687;43.330;21.924;2023-04-03T08:08:13;28.80;;;16.20;;
52816;SDS011;38687;43.330;21.924;2023-04-03T08:10:41;26.13;;;13.88;;
52816;SDS011;38687;43.330;21.924;2023-04-03T08:13:07;28.65;;;16.73;;
52816;SDS011;38687;43.330;21.924;2023-04-03T08:15:33;32.33;;;18.13;;
52816;SDS011;38687;43.330;21.924;2023-04-03T08:17:59;26.35;;;15.65;;
52816;SDS011;38687;43.330;21.924;2023-04-03T08:20:26;21.95;;;12.65;;
52816;SDS011;38687;43.330;21.924;2023-04-03T08:22:51;24.75;;;13.65;;
52816;SDS011;38687;43.330;21.924;2023-04-03T08:25:17;26.48;;;14.50;;
52816;SDS011;38687;43.330;21.924;2023-04-03T08:27:43;31.17;;;17.02;;
52816;SDS011;38687;43.330;21.924;2023-04-03T08:30:09;32.70;;;17.60;;
52816;SDS011;38687;43.330;21.924;2023-04-03T08:32:35;36.63;;;20.13;;
52816;SDS011;38687;43.330;21.924;2023-04-03T08:35:01;32.80;;;17.95;;
52816;SDS011;38687;43.330;21.924;2023-04-03T08:37:27;31.20;;;16.55;;
52816;SDS011;38687;43.330;21.924;2023-04-03T08:39:52;28.45;;;16.33;;
52816;SDS011;38687;43.330;21.924;2023-04-03T08:45:01;28.75;;;16.42;;
52816;SDS011;38687;43.330;21.924;2023-04-03T08:47:38;33.92;;;16.63;;
52816;SDS011;38687;43.330;21.924;2023-04-03T08:50:12;22.30;;;12.88;;
52816;SDS011;38687;43.330;21.924;2023-04-03T08:52:41;23.75;;;13.60;;
52816;SDS011;38687;43.330;21.924;2023-04-03T08:57:43;23.48;;;14.07;;
52816;SDS011;38687;43.330;21.924;2023-04-03T09:02:41;26.70;;;14.50;;
52816;SDS011;38687;43.330;21.924;2023-04-03T09:05:13;28.02;;;15.52;;
52816;SDS011;38687;43.330;21.924;2023-04-03T09:07:55;28.27;;;17.05;;
52816;SDS011;38687;43.330;21.924;2023-04-03T09:10:26;32.50;;;16.70;;
52816;SDS011;38687;43.330;21.924;2023-04-03T09:12:55;29.05;;;15.70;;
52816;SDS011;38687;43.330;21.924;2023-04-03T09:15:25;31.40;;;16.95;;
52816;SDS011;38687;43.330;21.924;2023-04-03T09:20:56;25.67;;;14.13;;
52816;SDS011;38687;43.330;21.924;2023-04-03T09:26:05;34.22;;;19.00;;
52816;SDS011;38687;43.330;21.924;2023-04-03T09:28:34;32.65;;;17.65;;
52816;SDS011;38687;43.330;21.924;2023-04-03T09:31:05;35.25;;;17.58;;
52816;SDS011;38687;43.330;21.924;2023-04-03T09:33:42;38.95;;;19.92;;
52816;SDS011;38687;43.330;21.924;2023-04-03T09:36:07;36.97;;;19.70;;
52816;SDS011;38687;43.330;21.924;2023-04-03T09:38:33;33.03;;;17.77;;
52816;SDS011;38687;43.330;21.924;2023-04-03T09:41:03;32.10;;;15.13;;
52816;SDS011;38687;43.330;21.924;2023-04-03T09:43:37;32.42;;;16.08;;
52816;SDS011;38687;43.330;21.924;2023-04-03T09:46:17;33.95;;;17.75;;
52816;SDS011;38687;43.330;21.924;2023-04-03T09:48:55;34.13;;;17.27;;
52816;SDS011;38687;43.330;21.924;2023-04-03T09:51:25;28.40;;;15.07;;
52816;SDS011;38687;43.330;21.924;2023-04-03T09:53:54;28.85;;;16.60;;
52816;SDS011;38687;43.330;21.924;2023-04-03T09:56:22;28.40;;;14.93;;
52816;SDS011;38687;43.330;21.924;2023-04-03T09:58:48;27.73;;;14.48;;
52816;SDS011;38687;43.330;21.924;2023-04-03T10:01:35;26.42;;;14.23;;
52816;SDS011;38687;43.330;21.924;2023-04-03T10:04:15;30.95;;;16.85;;
52816;SDS011;38687;43.330;21.924;2023-04-03T10:06:46;26.42;;;14.63;;
52816;SDS011;38687;43.330;21.924;2023-04-03T10:14:25;27.75;;;15.32;;
52816;SDS011;38687;43.330;21.924;2023-04-03T10:19:46;25.67;;;13.98;;
52816;SDS011;38687;43.330;21.924;2023-04-03T10:27:50;29.58;;;14.73;;
52816;SDS011;38687;43.330;21.924;2023-04-03T10:38:31;37.30;;;17.33;;
52816;SDS011;38687;43.330;21.924;2023-04-03T10:41:13;40.50;;;19.23;;
52816;SDS011;38687;43.330;21.924;2023-04-03T10:56:17;45.90;;;22.98;;
52816;SDS011;38687;43.330;21.924;2023-04-03T11:04:53;56.30;;;22.73;;
52816;SDS011;38687;43.330;21.924;2023-04-03T11:07:28;49.25;;;23.33;;
52816;SDS011;38687;43.330;21.924;2023-04-03T11:10:09;48.30;;;22.30;;
52816;SDS011;38687;43.330;21.924;2023-04-03T11:12:41;55.33;;;25.00;;
52816;SDS011;38687;43.330;21.924;2023-04-03T11:15:15;50.92;;;21.90;;
52816;SDS011;38687;43.330;21.924;2023-04-03T11:17:46;34.75;;;18.58;;
52816;SDS011;38687;43.330;21.924;2023-04-03T11:22:50;41.17;;;20.02;;
52816;SDS011;38687;43.330;21.924;2023-04-03T11:25:19;35.78;;;16.75;;
52816;SDS011;38687;43.330;21.924;2023-04-03T11:27:49;35.30;;;17.35;;
52816;SDS011;38687;43.330;21.924;2023-04-03T11:35:42;33.17;;;18.17;;
52816;SDS011;38687;43.330;21.924;2023-04-03T11:38:17;36.35;;;17.42;;
52816;SDS011;38687;43.330;21.924;2023-04-03T11:40:47;36.97;;;17.65;;
52816;SDS011;38687;43.330;21.924;2023-04-03T11:46:03;36.03;;;15.73;;
52816;SDS011;38687;43.330;21.924;2023-04-03T11:50:58;30.52;;;15.30;;
52816;SDS011;38687;43.330;21.924;2023-04-03T11:53:35;32.28;;;15.45;;
52816;SDS011;38687;43.330;21.924;2023-04-03T11:56:03;32.53;;;15.13;;
52816;SDS011;38687;43.330;21.924;2023-04-03T11:58:33;34.20;;;14.90;;
52816;SDS011;38687;43.330;21.924;2023-04-03T12:01:08;26.90;;;13.30;;
52816;SDS011;38687;43.330;21.924;2023-04-03T12:16:02;30.90;;;16.52;;
52816;SDS011;38687;43.330;21.924;2023-04-03T12:24:27;35.17;;;15.98;;
52816;SDS011;38687;43.330;21.924;2023-04-03T12:40:47;31.67;;;18.65;;
52816;SDS011;38687;43.330;21.924;2023-04-03T12:43:34;33.28;;;16.63;;
52816;SDS011;38687;43.330;21.924;2023-04-03T12:51:09;39.78;;;21.70;;
52816;SDS011;38687;43.330;21.924;2023-04-03T12:53:43;33.47;;;18.30;;
52816;SDS011;38687;43.330;21.924;2023-04-03T12:56:20;36.20;;;17.50;;
52816;SDS011;38687;43.330;21.924;2023-04-03T12:58:47;33.13;;;15.10;;
52816;SDS011;38687;43.330;21.924;2023-04-03T13:01:16;35.58;;;19.20;;
52816;SDS011;38687;43.330;21.924;2023-04-03T13:03:50;33.30;;;15.50;;
52816;SDS011;38687;43.330;21.924;2023-04-03T13:07:00;34.53;;;19.10;;
52816;SDS011;38687;43.330;21.924;2023-04-03T13:09:17;37.72;;;18.70;;
52816;SDS011;38687;43.330;21.924;2023-04-03T13:11:46;36.53;;;18.15;;
52816;SDS011;38687;43.330;21.924;2023-04-03T13:14:17;33.35;;;15.77;;
52816;SDS011;38687;43.330;21.924;2023-04-03T13:16:53;33.15;;;17.77;;
52816;SDS011;38687;43.330;21.924;2023-04-03T13:21:49;36.08;;;16.73;;
52816;SDS011;38687;43.330;21.924;2023-04-03T13:24:23;35.28;;;17.35;;
52816;SDS011;38687;43.330;21.924;2023-04-03T13:26:48;32.13;;;17.77;;
52816;SDS011;38687;43.330;21.924;2023-04-03T13:29:28;39.50;;;19.65;;
52816;SDS011;38687;43.330;21.924;2023-04-03T13:31:58;38.53;;;19.17;;
52816;SDS011;38687;43.330;21.924;2023-04-03T13:34:25;32.65;;;18.08;;
52816;SDS011;38687;43.330;21.924;2023-04-03T13:41:45;33.20;;;19.02;;
52816;SDS011;38687;43.330;21.924;2023-04-03T13:44:24;30.55;;;17.63;;
52816;SDS011;38687;43.330;21.924;2023-04-03T13:47:25;40.78;;;19.33;;
52816;SDS011;38687;43.330;21.924;2023-04-03T13:52:54;38.10;;;19.08;;
52816;SDS011;38687;43.330;21.924;2023-04-03T13:55:29;40.50;;;21.27;;
52816;SDS011;38687;43.330;21.924;2023-04-03T13:58:01;34.95;;;18.42;;
52816;SDS011;38687;43.330;21.924;2023-04-03T14:00:47;41.13;;;20.70;;
52816;SDS011;38687;43.330;21.924;2023-04-03T14:03:16;37.80;;;21.17;;
52816;SDS011;38687;43.330;21.924;2023-04-03T14:05:45;41.65;;;20.77;;
52816;SDS011;38687;43.330;21.924;2023-04-03T14:08:10;34.80;;;17.58;;
52816;SDS011;38687;43.330;21.924;2023-04-03T14:10:36;45.80;;;20.92;;
52816;SDS011;38687;43.330;21.924;2023-04-03T14:13:02;33.08;;;18.10;;
52816;SDS011;38687;43.330;21.924;2023-04-03T14:15:28;29.00;;;15.82;;
52816;SDS011;38687;43.330;21.924;2023-04-03T14:17:56;43.97;;;19.08;;
52816;SDS011;38687;43.330;21.924;2023-04-03T14:20:22;40.65;;;19.88;;
52816;SDS011;38687;43.330;21.924;2023-04-03T14:22:50;40.40;;;21.02;;
52816;SDS011;38687;43.330;21.924;2023-04-03T14:25:17;33.42;;;17.85;;
52816;SDS011;38687;43.330;21.924;2023-04-03T14:27:44;33.42;;;17.77;;
52816;SDS011;38687;43.330;21.924;2023-04-03T14:30:23;32.85;;;16.77;;
52816;SDS011;38687;43.330;21.924;2023-04-03T14:32:50;40.95;;;20.10;;
52816;SDS011;38687;43.330;21.924;2023-04-03T14:35:16;44.33;;;22.58;;
52816;SDS011;38687;43.330;21.924;2023-04-03T14:37:42;40.22;;;20.55;;
52816;SDS011;38687;43.330;21.924;2023-04-03T14:40:08;34.83;;;17.88;;
52816;SDS011;38687;43.330;21.924;2023-04-03T14:42:37;28.90;;;16.00;;
52816;SDS011;38687;43.330;21.924;2023-04-03T14:45:04;32.78;;;18.40;;
52816;SDS011;38687;43.330;21.924;2023-04-03T14:47:31;36.10;;;18.95;;
52816;SDS011;38687;43.330;21.924;2023-04-03T14:49:57;37.50;;;18.42;;
52816;SDS011;38687;43.330;21.924;2023-04-03T14:52:30;34.67;;;18.70;;
52816;SDS011;38687;43.330;21.924;2023-04-03T14:54:58;44.28;;;21.25;;
52816;SDS011;38687;43.330;21.924;2023-04-03T14:57:25;34.97;;;18.75;;
52816;SDS011;38687;43.330;21.924;2023-04-03T14:59:52;33.38;;;18.42;;
52816;SDS011;38687;43.330;21.924;2023-04-03T15:02:29;38.05;;;17.70;;
52816;SDS011;38687;43.330;21.924;2023-04-03T15:04:59;39.22;;;19.10;;
52816;SDS011;38687;43.330;21.924;2023-04-03T15:07:29;35.22;;;17.25;;
52816;SDS011;38687;43.330;21.924;2023-04-03T15:09:56;33.95;;;17.90;;
52816;SDS011;38687;43.330;21.924;2023-04-03T15:12:22;32.60;;;16.60;;
52816;SDS011;38687;43.330;21.924;2023-04-03T15:14:48;33.13;;;16.30;;
52816;SDS011;38687;43.330;21.924;2023-04-03T15:17:15;28.98;;;16.58;;
52816;SDS011;38687;43.330;21.924;2023-04-03T15:19:42;41.47;;;20.48;;
52816;SDS011;38687;43.330;21.924;2023-04-03T15:22:10;32.42;;;19.33;;
52816;SDS011;38687;43.330;21.924;2023-04-03T15:24:39;31.23;;;17.20;;
52816;SDS011;38687;43.330;21.924;2023-04-03T15:27:04;32.97;;;17.48;;
52816;SDS011;38687;43.330;21.924;2023-04-03T15:29:33;23.10;;;13.95;;
52816;SDS011;38687;43.330;21.924;2023-04-03T15:32:01;31.48;;;16.85;;
52816;SDS011;38687;43.330;21.924;2023-04-03T15:34:27;33.88;;;20.00;;
52816;SDS011;38687;43.330;21.924;2023-04-03T15:36:55;30.83;;;16.40;;
52816;SDS011;38687;43.330;21.924;2023-04-03T15:39:21;33.13;;;17.77;;
52816;SDS011;38687;43.330;21.924;2023-04-03T15:41:47;41.47;;;22.60;;
52816;SDS011;38687;43.330;21.924;2023-04-03T15:44:13;31.27;;;16.45;;
52816;SDS011;38687;43.330;21.924;2023-04-03T15:46:38;33.85;;;18.92;;
52816;SDS011;38687;43.330;21.924;2023-04-03T15:49:04;28.63;;;16.42;;
52816;SDS011;38687;43.330;21.924;2023-04-03T15:51:30;35.08;;;17.77;;
52816;SDS011;38687;43.330;21.924;2023-04-03T15:53:56;50.38;;;26.48;;
52816;SDS011;38687;43.330;21.924;2023-04-03T15:56:24;47.03;;;24.00;;
52816;SDS011;38687;43.330;21.924;2023-04-03T15:58:50;36.67;;;20.52;;
52816;SDS011;38687;43.330;21.924;2023-04-03T16:01:15;39.00;;;21.98;;
52816;SDS011;38687;43.330;21.924;2023-04-03T16:03:41;42.95;;;22.73;;
52816;SDS011;38687;43.330;21.924;2023-04-03T16:06:12;31.88;;;16.60;;
52816;SDS011;38687;43.330;21.924;2023-04-03T16:08:38;32.85;;;20.02;;
52816;SDS011;38687;43.330;21.924;2023-04-03T16:11:03;37.58;;;19.55;;
52816;SDS011;38687;43.330;21.924;2023-04-03T16:13:29;29.25;;;15.82;;
52816;SDS011;38687;43.330;21.924;2023-04-03T16:15:55;31.85;;;17.55;;
52816;SDS011;38687;43.330;21.924;2023-04-03T16:18:21;33.70;;;18.10;;
52816;SDS011;38687;43.330;21.924;2023-04-03T16:20:46;34.63;;;20.33;;
52816;SDS011;38687;43.330;21.924;2023-04-03T16:23:12;41.05;;;21.08;;
52816;SDS011;38687;43.330;21.924;2023-04-03T16:25:37;37.72;;;20.33;;